createdAt,value
2023-05-09T00:00:00.077Z, 90.8
2023-05-09T00:02:00.253Z, 91.1
2023-05-09T00:04:00.083Z, 90.9
2023-05-09T00:06:00.096Z, 90.3
2023-05-09T00:08:00.077Z, 89.8
2023-05-09T00:10:00.075Z, 89.4
2023-05-09T00:12:00.100Z, 89
2023-05-09T00:14:00.050Z, 88.6
2023-05-09T00:16:00.055Z, 88.3
2023-05-09T00:18:00.160Z, 88
2023-05-09T00:20:00.089Z, 87.9
2023-05-09T00:22:00.125Z, 88.1
2023-05-09T00:24:00.109Z, 88.7
2023-05-09T00:26:00.144Z, 89.1
2023-05-09T00:28:00.094Z, 89.1
2023-05-09T00:30:00.189Z, 88.9
2023-05-09T00:32:00.118Z, 89.5
2023-05-09T00:34:00.128Z, 90
2023-05-09T00:36:00.136Z, 90.1
2023-05-09T00:38:00.150Z, 89.9
2023-05-09T00:40:00.137Z, 91
2023-05-09T00:42:00.144Z, 92.2
2023-05-09T00:44:00.131Z, 92.5
2023-05-09T00:46:00.165Z, 92.4
2023-05-09T00:48:00.171Z, 91.5
2023-05-09T00:50:00.097Z, 91.4
2023-05-09T00:52:00.068Z, 91.5
2023-05-09T00:54:00.062Z, 94.8
2023-05-09T00:56:00.079Z, 96.6
2023-05-09T00:58:00.112Z, 97.6
2023-05-09T01:00:00.134Z, 97.2
2023-05-09T01:02:00.043Z, 95.9
2023-05-09T01:04:00.051Z, 95.9
2023-05-09T01:06:00.045Z, 96.3
2023-05-09T01:08:00.033Z, 96.3
2023-05-09T01:10:00.066Z, 96
2023-05-09T01:12:00.142Z, 95.8
2023-05-09T01:14:00.103Z, 95.5
2023-05-09T01:16:00.072Z, 94.7
2023-05-09T01:18:00.137Z, 94.4
2023-05-09T01:20:00.062Z, 94.3
2023-05-09T01:22:00.140Z, 95.1
2023-05-09T01:24:00.127Z, 95.5
2023-05-09T01:26:00.114Z, 95.8
2023-05-09T01:28:00.133Z, 96.5
2023-05-09T01:30:00.163Z, 96.7
2023-05-09T01:32:00.127Z, 96.6
2023-05-09T01:34:00.133Z, 96.5
2023-05-09T01:36:00.155Z, 95.5
2023-05-09T01:38:00.136Z, 95.7
2023-05-09T01:40:00.234Z, 96.9
2023-05-09T01:42:00.138Z, 97.8
2023-05-09T01:44:00.143Z, 98.3
2023-05-09T01:46:00.133Z, 98.3
2023-05-09T01:48:00.215Z, 96.6
2023-05-09T01:50:00.135Z, 96.3
2023-05-09T01:52:00.076Z, 97.8
2023-05-09T01:54:00.059Z, 98.8
2023-05-09T01:56:00.066Z, 98.8
2023-05-09T01:58:00.069Z, 98.6
2023-05-09T02:00:00.130Z, 98.9
2023-05-09T02:02:00.110Z, 99.1
2023-05-09T02:04:00.033Z, 99.1
2023-05-09T02:06:00.091Z, 99.3
2023-05-09T02:08:00.070Z, 100
2023-05-09T02:10:00.049Z, 100
2023-05-09T02:12:00.134Z, 100
2023-05-09T02:14:00.066Z, 100
2023-05-09T02:16:00.095Z, 100
2023-05-09T02:18:00.168Z, 100
2023-05-09T02:20:00.197Z, 100
2023-05-09T02:22:00.117Z, 100
2023-05-09T02:24:00.123Z, 100
2023-05-09T02:26:00.133Z, 99.6
2023-05-09T02:28:00.126Z, 98.1
2023-05-09T02:30:00.137Z, 97.6
2023-05-09T02:32:00.196Z, 97.9
2023-05-09T02:34:00.160Z, 98
2023-05-09T02:36:00.129Z, 98
2023-05-09T02:38:00.125Z, 97.9
2023-05-09T02:40:00.111Z, 97.8
2023-05-09T02:42:00.134Z, 97
2023-05-09T02:44:00.106Z, 96.7
2023-05-09T02:46:00.192Z, 96.5
2023-05-09T02:48:00.219Z, 97
2023-05-09T02:50:00.146Z, 97.9
2023-05-09T02:52:00.068Z, 99.5
2023-05-09T02:54:00.095Z, 100
2023-05-09T02:56:00.071Z, 99.9
2023-05-09T02:58:12.628Z, 99.4
2023-05-09T03:00:00.074Z, 98.5
2023-05-09T03:02:00.050Z, 98.2
2023-05-09T03:04:00.155Z, 98.6
2023-05-09T03:06:00.063Z, 99.6
2023-05-09T03:08:00.039Z, 100
2023-05-09T03:10:00.063Z, 100
2023-05-09T03:12:00.054Z, 100
2023-05-09T03:14:00.024Z, 100
2023-05-09T03:16:00.150Z, 100
2023-05-09T03:18:00.180Z, 100
2023-05-09T03:20:02.326Z, 100
2023-05-09T03:22:00.152Z, 100
2023-05-09T03:24:00.166Z, 100
2023-05-09T03:26:00.126Z, 100
2023-05-09T03:28:00.121Z, 100
2023-05-09T03:30:00.145Z, 100
2023-05-09T03:32:00.166Z, 100
2023-05-09T03:34:00.109Z, 100
2023-05-09T03:36:00.160Z, 100
2023-05-09T03:38:00.133Z, 100
2023-05-09T03:40:00.128Z, 100
2023-05-09T03:42:00.150Z, 100
2023-05-09T03:44:00.127Z, 100
2023-05-09T03:46:00.101Z, 100
2023-05-09T03:48:00.221Z, 100
2023-05-09T03:50:00.177Z, 100
2023-05-09T03:52:00.093Z, 100
2023-05-09T03:54:00.127Z, 100
2023-05-09T03:56:00.061Z, 100
2023-05-09T03:58:00.047Z, 100
2023-05-09T04:00:00.163Z, 100
2023-05-09T04:02:00.099Z, 100
2023-05-09T04:04:00.074Z, 100
2023-05-09T04:06:00.053Z, 100
2023-05-09T04:08:00.061Z, 100
2023-05-09T04:10:00.102Z, 99.5
2023-05-09T04:12:00.076Z, 98.5
2023-05-09T04:14:00.049Z, 97.4
2023-05-09T04:16:00.040Z, 98.8
2023-05-09T04:18:00.116Z, 100
2023-05-09T04:20:00.043Z, 100
2023-05-09T04:22:00.124Z, 100
2023-05-09T04:24:00.148Z, 99.9
2023-05-09T04:26:00.165Z, 99
2023-05-09T04:28:00.126Z, 98.1
2023-05-09T04:30:00.167Z, 97.5
2023-05-09T04:32:00.241Z, 97.3
2023-05-09T04:34:00.144Z, 97.9
2023-05-09T04:36:00.117Z, 98.8
2023-05-09T04:38:00.157Z, 100
2023-05-09T04:40:00.154Z, 100
2023-05-09T04:42:00.204Z, 100
2023-05-09T04:44:00.151Z, 100
2023-05-09T04:46:00.200Z, 100
2023-05-09T04:48:00.240Z, 100
2023-05-09T04:50:00.178Z, 100
2023-05-09T04:52:00.085Z, 100
2023-05-09T04:54:00.138Z, 100
2023-05-09T04:56:00.099Z, 100
2023-05-09T04:58:00.065Z, 98
2023-05-09T05:00:00.072Z, 96.7
2023-05-09T05:02:00.225Z, 95.9
2023-05-09T05:04:00.081Z, 95.4
2023-05-09T05:06:00.064Z, 94.8
2023-05-09T05:08:00.057Z, 93.9
2023-05-09T05:10:00.078Z, 91.8
2023-05-09T05:12:02.663Z, 89.6
2023-05-09T05:14:00.070Z, 88.5
2023-05-09T05:16:00.073Z, 88
2023-05-09T05:18:00.134Z, 86.4
2023-05-09T05:20:00.042Z, 85.6
2023-05-09T05:22:00.121Z, 84.9
2023-05-09T05:24:00.115Z, 84.4
2023-05-09T05:26:00.109Z, 83
2023-05-09T05:28:00.141Z, 83
2023-05-09T05:30:00.162Z, 82.6
2023-05-09T05:32:00.388Z, 82.8
2023-05-09T05:34:00.155Z, 82.2
2023-05-09T05:36:00.174Z, 82.8
2023-05-09T05:38:00.165Z, 84.3
2023-05-09T05:40:00.167Z, 84.7
2023-05-09T05:42:00.157Z, 85.1
2023-05-09T05:44:00.102Z, 85.4
2023-05-09T05:46:00.153Z, 85.7
2023-05-09T05:48:00.212Z, 86.5
2023-05-09T05:50:00.147Z, 87.5
2023-05-09T05:52:00.124Z, 87.3
2023-05-09T05:54:00.065Z, 87.4
2023-05-09T05:56:00.062Z, 86.7
2023-05-09T05:58:00.128Z, 87.2
2023-05-09T06:00:00.063Z, 88.1
2023-05-09T06:02:00.124Z, 89.1
2023-05-09T06:04:00.197Z, 89.1
2023-05-09T06:06:00.047Z, 88.6
2023-05-09T06:08:00.053Z, 88.6
2023-05-09T06:10:00.060Z, 88.1
2023-05-09T06:12:00.056Z, 88.5
2023-05-09T06:14:00.058Z, 89.8
2023-05-09T06:16:14.988Z, 91.1
2023-05-09T06:18:00.087Z, 91.2
2023-05-09T06:20:00.058Z, 91.4
2023-05-09T06:22:00.092Z, 92.2
2023-05-09T06:24:07.693Z, 95.2
2023-05-09T06:26:00.127Z, 97
2023-05-09T06:28:00.115Z, 95.9
2023-05-09T06:30:01.414Z, 92.8
2023-05-09T06:32:00.154Z, 92.5
2023-05-09T06:34:00.140Z, 92
2023-05-09T06:36:00.215Z, 89
2023-05-09T06:38:00.137Z, 87.1
2023-05-09T06:40:00.157Z, 85.8
2023-05-09T06:42:00.128Z, 85.8
2023-05-09T06:44:00.139Z, 86.4
2023-05-09T06:46:00.219Z, 85.2
2023-05-09T06:48:00.187Z, 86.8
2023-05-09T06:50:00.148Z, 87.3
2023-05-09T06:52:00.087Z, 86.8
2023-05-09T06:54:00.099Z, 85.9
2023-05-09T06:56:00.059Z, 85.2
2023-05-09T06:58:00.077Z, 84.9
2023-05-09T07:00:00.186Z, 84.4
2023-05-09T07:02:00.124Z, 84.9
2023-05-09T07:04:00.071Z, 85
2023-05-09T07:06:00.059Z, 83.6
2023-05-09T07:08:00.070Z, 82.4
2023-05-09T07:10:10.502Z, 82.2
2023-05-09T07:12:00.055Z, 81.9
2023-05-09T07:14:00.045Z, 81.2
2023-05-09T07:16:00.101Z, 81.2
2023-05-09T07:18:00.135Z, 81.5
2023-05-09T07:20:00.056Z, 82.5
2023-05-09T07:22:00.140Z, 84.7
2023-05-09T07:24:00.128Z, 86.2
2023-05-09T07:26:00.122Z, 83.2
2023-05-09T07:28:00.156Z, 81.2
2023-05-09T07:30:00.150Z, 80.1
2023-05-09T07:32:00.181Z, 78.5
2023-05-09T07:34:00.119Z, 76.1
2023-05-09T07:36:00.142Z, 75.3
2023-05-09T07:38:00.149Z, 75.2
2023-05-09T07:40:00.145Z, 75.9
2023-05-09T07:42:00.102Z, 76.6
2023-05-09T07:44:00.120Z, 77.4
2023-05-09T07:46:00.261Z, 78.4
2023-05-09T07:48:00.215Z, 79.4
2023-05-09T07:50:00.130Z, 79.4
2023-05-09T07:52:00.082Z, 78.7
2023-05-09T07:54:00.117Z, 78.8
2023-05-09T07:56:00.121Z, 79.1
2023-05-09T07:58:00.060Z, 78.6
2023-05-09T08:00:00.098Z, 77.9
2023-05-09T08:02:00.095Z, 76.2
2023-05-09T08:04:00.202Z, 76.6
2023-05-09T08:06:00.185Z, 76.5
2023-05-09T08:08:00.066Z, 76.6
2023-05-09T08:10:00.066Z, 77.6
2023-05-09T08:12:00.062Z, 76.3
2023-05-09T08:14:00.057Z, 75.9
2023-05-09T08:16:00.277Z, 74.1
2023-05-09T08:18:00.160Z, 72.9
2023-05-09T08:20:00.053Z, 74.3
2023-05-09T08:22:00.134Z, 74
2023-05-09T08:24:00.111Z, 73.9
2023-05-09T08:26:00.185Z, 72.9
2023-05-09T08:28:00.112Z, 72.9
2023-05-09T08:30:00.122Z, 72.7
2023-05-09T08:32:00.131Z, 72.9
2023-05-09T08:34:00.147Z, 72.1
2023-05-09T08:36:00.143Z, 71.9
2023-05-09T08:38:00.138Z, 72.4
2023-05-09T08:40:00.180Z, 72.9
2023-05-09T08:42:00.114Z, 72.9
2023-05-09T08:44:00.153Z, 73.7
2023-05-09T08:46:00.315Z, 75.2
2023-05-09T08:48:00.257Z, 75.5
2023-05-09T08:50:00.130Z, 73.6
2023-05-09T08:52:00.146Z, 73.9
2023-05-09T08:54:00.066Z, 73.1
2023-05-09T08:56:00.049Z, 72.8
2023-05-09T08:58:00.034Z, 72.6
2023-05-09T09:00:00.071Z, 71.9
2023-05-09T09:02:00.232Z, 72.1
2023-05-09T09:04:00.049Z, 72.8
2023-05-09T09:06:00.122Z, 72.3
2023-05-09T09:08:00.054Z, 71.1
2023-05-09T09:10:00.049Z, 72.4
2023-05-09T09:12:00.042Z, 71.5
2023-05-09T09:14:00.045Z, 72.6
2023-05-09T09:16:00.311Z, 74.1
2023-05-09T09:18:00.196Z, 76.1
2023-05-09T09:20:00.073Z, 78.2
2023-05-09T09:22:00.134Z, 77.8
2023-05-09T09:24:00.142Z, 75.7
2023-05-09T09:26:00.317Z, 75.2
2023-05-09T09:28:00.102Z, 75.2
2023-05-09T09:30:00.141Z, 75.1
2023-05-09T09:32:00.167Z, 73.1
2023-05-09T09:34:00.141Z, 74
2023-05-09T09:36:00.200Z, 73.1
2023-05-09T09:38:00.381Z, 72
2023-05-09T09:40:00.211Z, 73.1
2023-05-09T09:42:00.145Z, 73.2
2023-05-09T09:44:00.126Z, 73
2023-05-09T09:46:00.176Z, 74.3
2023-05-09T09:48:00.154Z, 73.7
2023-05-09T09:50:00.224Z, 75.4
2023-05-09T09:52:00.104Z, 74.6
2023-05-09T09:54:00.078Z, 74
2023-05-09T09:56:00.045Z, 72.9
2023-05-09T09:58:00.038Z, 73.2
2023-05-09T10:00:00.070Z, 72.4
2023-05-09T10:02:00.063Z, 72.5
2023-05-09T10:04:00.132Z, 72.2
2023-05-09T10:06:00.109Z, 73.7
2023-05-09T10:08:00.078Z, 74.3
2023-05-09T10:10:00.046Z, 74.7
2023-05-09T10:12:00.062Z, 74.4
2023-05-09T10:14:00.076Z, 74.8
2023-05-09T10:16:00.284Z, 74.6
2023-05-09T10:18:00.233Z, 75.3
2023-05-09T10:20:00.103Z, 76.1
2023-05-09T10:22:00.121Z, 75.4
2023-05-09T10:24:00.122Z, 76.4
2023-05-09T10:26:00.109Z, 75.6
2023-05-09T10:28:00.102Z, 75.2
2023-05-09T10:30:00.173Z, 76.6
2023-05-09T10:32:00.125Z, 75.7
2023-05-09T10:34:00.127Z, 75.7
2023-05-09T10:36:00.175Z, 76.5
2023-05-09T10:38:00.140Z, 76.2
2023-05-09T10:40:00.119Z, 77.5
2023-05-09T10:42:00.146Z, 77.9
2023-05-09T10:44:00.105Z, 78.1
2023-05-09T10:46:00.111Z, 79.2
2023-05-09T10:48:00.257Z, 79.8
2023-05-09T10:50:00.118Z, 81.2
2023-05-09T10:52:00.091Z, 83.1
2023-05-09T10:54:00.111Z, 83.1
2023-05-09T10:56:00.064Z, 83.5
2023-05-09T10:58:00.063Z, 83.1
2023-05-09T11:00:00.113Z, 83.5
2023-05-09T11:02:00.128Z, 84.8
2023-05-09T11:04:00.201Z, 86.2
2023-05-09T11:06:00.150Z, 86.9
2023-05-09T11:08:00.070Z, 88.5
2023-05-09T11:10:00.057Z, 90
2023-05-09T11:12:00.131Z, 91.6
2023-05-09T11:14:00.087Z, 91.1
2023-05-09T11:16:00.170Z, 89.4
2023-05-09T11:18:00.084Z, 86.6
2023-05-09T11:20:00.074Z, 85.9
2023-05-09T11:22:00.134Z, 86.9
2023-05-09T11:24:00.148Z, 88.5
2023-05-09T11:26:00.087Z, 88.7
2023-05-09T11:28:00.148Z, 88.4
2023-05-09T11:30:00.117Z, 87.8
2023-05-09T11:32:00.151Z, 88.2
2023-05-09T11:34:00.136Z, 88.8
2023-05-09T11:36:00.136Z, 89.2
2023-05-09T11:38:00.163Z, 89.9
2023-05-09T11:40:00.161Z, 87.1
2023-05-09T11:42:00.166Z, 84.9
2023-05-09T11:44:00.132Z, 86.5
2023-05-09T11:46:00.188Z, 85.7
2023-05-09T11:48:00.194Z, 84.4
2023-05-09T11:50:00.161Z, 83.5
2023-05-09T11:52:00.064Z, 81.4
2023-05-09T11:54:00.087Z, 80.2
2023-05-09T11:56:00.054Z, 79.1
2023-05-09T11:58:00.070Z, 78
2023-05-09T12:00:00.064Z, 76.1
2023-05-09T12:02:00.069Z, 75.9
2023-05-09T12:04:00.095Z, 75.7
2023-05-09T12:06:00.033Z, 75
2023-05-09T12:08:00.037Z, 72.2
2023-05-09T12:10:00.071Z, 71.3
2023-05-09T12:12:00.081Z, 70
2023-05-09T12:14:00.077Z, 68.7
2023-05-09T12:16:00.101Z, 67.1
2023-05-09T12:18:00.119Z, 69
2023-05-09T12:20:00.046Z, 67.8
2023-05-09T12:22:00.124Z, 66
2023-05-09T12:24:00.154Z, 66.1
2023-05-09T12:26:00.128Z, 66.2
2023-05-09T12:28:00.176Z, 68.3
2023-05-09T12:30:00.202Z, 69
2023-05-09T12:32:00.121Z, 67.4
2023-05-09T12:34:00.141Z, 67.3
2023-05-09T12:36:00.152Z, 68
2023-05-09T12:38:00.203Z, 69.5
2023-05-09T12:40:00.168Z, 70.7
2023-05-09T12:42:01.879Z, 72.4
2023-05-09T12:44:00.107Z, 78
2023-05-09T12:46:00.139Z, 78.8
2023-05-09T12:48:00.324Z, 78.5
2023-05-09T12:50:00.161Z, 79.9
2023-05-09T12:52:01.636Z, 79.3
2023-05-09T12:54:00.051Z, 79.4
2023-05-09T12:56:00.052Z, 78.1
2023-05-09T12:58:00.041Z, 78.6
2023-05-09T13:00:00.155Z, 79.6
2023-05-09T13:02:00.132Z, 78.9
2023-05-09T13:04:00.024Z, 79.4
2023-05-09T13:06:00.025Z, 79.2
2023-05-09T13:08:00.053Z, 79.8
2023-05-09T13:10:00.059Z, 80
2023-05-09T13:12:00.064Z, 79.8
2023-05-09T13:14:00.068Z, 81.3
2023-05-09T13:16:00.061Z, 83.6
2023-05-09T13:18:00.107Z, 84.9
2023-05-09T13:20:00.134Z, 85.4
2023-05-09T13:22:00.122Z, 85.5
2023-05-09T13:24:00.135Z, 87.4
2023-05-09T13:26:00.145Z, 89.5
2023-05-09T13:28:00.212Z, 88.6
2023-05-09T13:30:00.132Z, 89.2
2023-05-09T13:32:00.103Z, 88.3
2023-05-09T13:34:00.102Z, 87.7
2023-05-09T13:36:00.145Z, 85.6
2023-05-09T13:38:00.135Z, 83.7
2023-05-09T13:40:00.098Z, 83.8
2023-05-09T13:42:00.137Z, 87.6
2023-05-09T13:44:00.105Z, 91.4
2023-05-09T13:46:00.115Z, 93.7
2023-05-09T13:48:00.224Z, 96.2
2023-05-09T13:50:00.139Z, 95
2023-05-09T13:52:00.073Z, 92.9
2023-05-09T13:54:00.068Z, 89.2
2023-05-09T13:56:00.050Z, 87.2
2023-05-09T13:58:00.044Z, 86
2023-05-09T14:00:00.056Z, 84.6
2023-05-09T14:02:00.401Z, 83.3
2023-05-09T14:04:00.085Z, 83.3
2023-05-09T14:06:00.027Z, 82.1
2023-05-09T14:08:00.054Z, 81.1
2023-05-09T14:10:10.869Z, 80.6
2023-05-09T14:12:00.076Z, 79
2023-05-09T14:14:00.060Z, 79.5
2023-05-09T14:16:00.176Z, 79
2023-05-09T14:18:00.449Z, 79.5
2023-05-09T14:20:00.091Z, 78.7
2023-05-09T14:22:00.097Z, 80
2023-05-09T14:24:00.135Z, 80.2
2023-05-09T14:26:00.079Z, 81.4
2023-05-09T14:28:00.130Z, 81.6
2023-05-09T14:30:00.160Z, 81.7
2023-05-09T14:32:00.216Z, 81.3
2023-05-09T14:34:00.173Z, 80.9
2023-05-09T14:36:00.148Z, 81.8
2023-05-09T14:38:00.133Z, 81.7
2023-05-09T14:40:00.171Z, 80.3
2023-05-09T14:42:00.160Z, 78.7
2023-05-09T14:44:00.134Z, 78.9
2023-05-09T14:46:00.139Z, 77.9
2023-05-09T14:48:00.237Z, 77.2
2023-05-09T14:50:00.175Z, 77.8
2023-05-09T14:52:00.119Z, 76.8
2023-05-09T14:54:00.350Z, 74.6
2023-05-09T14:56:00.073Z, 75.5
2023-05-09T14:58:00.036Z, 76.2
2023-05-09T15:00:12.654Z, 76.8
2023-05-09T15:02:00.063Z, 76.5
2023-05-09T15:04:00.083Z, 77.6
2023-05-09T15:06:00.168Z, 76.7
2023-05-09T15:08:00.043Z, 75.9
2023-05-09T15:10:00.107Z, 76.9
2023-05-09T15:12:00.127Z, 76.7
2023-05-09T15:14:00.073Z, 76.5
2023-05-09T15:16:00.041Z, 76.2
2023-05-09T15:18:00.074Z, 75.2
2023-05-09T15:20:00.101Z, 76.2
2023-05-09T15:22:00.132Z, 76.8
2023-05-09T15:24:00.114Z, 76.3
2023-05-09T15:26:00.128Z, 76.4
2023-05-09T15:28:00.124Z, 76.5
2023-05-09T15:30:00.151Z, 76.5
2023-05-09T15:32:00.096Z, 77.3
2023-05-09T15:34:00.181Z, 78
2023-05-09T15:36:00.158Z, 78.7
2023-05-09T15:38:00.119Z, 79.1
2023-05-09T15:40:00.149Z, 79.1
2023-05-09T15:42:00.133Z, 79.6
2023-05-09T15:44:00.144Z, 79.6
2023-05-09T15:46:00.153Z, 79.4
2023-05-09T15:48:00.187Z, 79.4
2023-05-09T15:50:00.192Z, 79.8
2023-05-09T15:52:00.080Z, 80.1
2023-05-09T15:54:00.062Z, 80.3
2023-05-09T15:56:00.085Z, 80.7
2023-05-09T15:58:00.066Z, 79.6
2023-05-09T16:00:00.065Z, 80.3
2023-05-09T16:02:00.085Z, 80.5
2023-05-09T16:04:00.140Z, 79.5
2023-05-09T16:06:00.066Z, 79.4
2023-05-09T16:08:00.066Z, 78.7
2023-05-09T16:10:00.076Z, 77.8
2023-05-09T16:12:00.065Z, 78.3
2023-05-09T16:14:00.101Z, 78.8
2023-05-09T16:16:00.100Z, 78.8
2023-05-09T16:18:00.055Z, 79.4
2023-05-09T16:20:00.039Z, 80.8
2023-05-09T16:22:00.165Z, 81.8
2023-05-09T16:24:00.147Z, 82.7
2023-05-09T16:26:00.105Z, 84
2023-05-09T16:28:00.170Z, 85.6
2023-05-09T16:30:00.235Z, 86.4
2023-05-09T16:32:00.204Z, 87.2
2023-05-09T16:34:00.109Z, 87.6
2023-05-09T16:36:00.143Z, 88.4
2023-05-09T16:38:00.173Z, 89.4
2023-05-09T16:40:00.181Z, 90.3
2023-05-09T16:42:00.161Z, 90.9
2023-05-09T16:44:00.209Z, 90.5
2023-05-09T16:46:00.260Z, 89.6
2023-05-09T16:48:02.188Z, 89.5
2023-05-09T16:50:00.215Z, 90.8
2023-05-09T16:52:00.091Z, 91
2023-05-09T16:54:00.070Z, 89.6
2023-05-09T16:56:00.075Z, 88.5
2023-05-09T16:58:00.062Z, 86.1
2023-05-09T17:00:00.177Z, 85.2
2023-05-09T17:02:00.053Z, 84.8
2023-05-09T17:04:00.120Z, 83.6
2023-05-09T17:06:00.058Z, 84.3
2023-05-09T17:08:00.024Z, 85.2
2023-05-09T17:10:00.144Z, 86.1
2023-05-09T17:12:00.078Z, 85.6
2023-05-09T17:14:00.058Z, 86.6
2023-05-09T17:16:00.086Z, 88.5
2023-05-09T17:18:00.063Z, 90.3
2023-05-09T17:20:00.048Z, 92.6
2023-05-09T17:22:00.124Z, 93.4
2023-05-09T17:24:00.134Z, 94.6
2023-05-09T17:26:00.155Z, 94.7
2023-05-09T17:28:00.149Z, 94.8
2023-05-09T17:30:00.177Z, 95.8
2023-05-09T17:32:00.145Z, 96
2023-05-09T17:34:00.110Z, 96.7
2023-05-09T17:36:00.153Z, 97.3
2023-05-09T17:38:00.137Z, 98.1
2023-05-09T17:40:00.169Z, 98.2
2023-05-09T17:42:00.137Z, 98.4
2023-05-09T17:44:00.109Z, 98.8
2023-05-09T17:46:00.215Z, 98.7
2023-05-09T17:48:00.154Z, 98.7
2023-05-09T17:50:00.186Z, 98.9
2023-05-09T17:52:00.065Z, 98.9
2023-05-09T17:54:00.121Z, 98.5
2023-05-09T17:56:00.069Z, 98.4
2023-05-09T17:58:00.061Z, 98.2
2023-05-09T18:00:00.063Z, 98.4
2023-05-09T18:02:00.130Z, 98.5
2023-05-09T18:04:00.112Z, 98.4
2023-05-09T18:06:00.043Z, 99.1
2023-05-09T18:08:00.043Z, 100
2023-05-09T18:10:00.062Z, 100
2023-05-09T18:12:00.127Z, 100
2023-05-09T18:14:00.045Z, 98.9
2023-05-09T18:16:00.096Z, 97.9
2023-05-09T18:18:00.095Z, 97.7
2023-05-09T18:20:00.025Z, 96.8
2023-05-09T18:22:00.113Z, 96
2023-05-09T18:24:00.107Z, 96.5
2023-05-09T18:26:00.120Z, 96
2023-05-09T18:28:00.160Z, 95.2
2023-05-09T18:30:00.150Z, 96.2
2023-05-09T18:32:00.137Z, 97
2023-05-09T18:34:00.140Z, 96.3
2023-05-09T18:36:00.143Z, 95.3
2023-05-09T18:38:00.159Z, 94.1
2023-05-09T18:40:00.201Z, 93
2023-05-09T18:42:00.124Z, 91.8
2023-05-09T18:44:00.138Z, 91.1
2023-05-09T18:46:00.131Z, 91.6
2023-05-09T18:48:00.199Z, 92.4
2023-05-09T18:50:02.504Z, 93
2023-05-09T18:52:00.117Z, 94.3
2023-05-09T18:54:00.103Z, 95.9
2023-05-09T18:56:00.160Z, 98.2
2023-05-09T18:58:00.074Z, 99.8
2023-05-09T19:00:00.069Z, 100
2023-05-09T19:02:00.059Z, 100
2023-05-09T19:04:00.143Z, 100
2023-05-09T19:06:00.174Z, 100
2023-05-09T19:08:00.039Z, 100
2023-05-09T19:10:00.067Z, 100
2023-05-09T19:12:00.113Z, 100
2023-05-09T19:14:00.213Z, 100
2023-05-09T19:16:00.067Z, 100
2023-05-09T19:18:00.219Z, 100
2023-05-09T19:20:00.075Z, 100
2023-05-09T19:22:00.094Z, 100
2023-05-09T19:24:00.108Z, 100
2023-05-09T19:26:00.090Z, 100
2023-05-09T19:28:00.120Z, 100
2023-05-09T19:30:00.132Z, 100
2023-05-09T19:32:00.121Z, 100
2023-05-09T19:34:00.120Z, 100
2023-05-09T19:36:00.098Z, 100
2023-05-09T19:38:00.125Z, 100
2023-05-09T19:40:00.127Z, 100
2023-05-09T19:42:00.827Z, 100
2023-05-09T19:44:00.108Z, 100
2023-05-09T19:46:00.206Z, 100
2023-05-09T19:48:00.165Z, 100
2023-05-09T19:50:00.132Z, 100
2023-05-09T19:52:00.083Z, 100
2023-05-09T19:54:00.073Z, 100
2023-05-09T19:56:00.106Z, 100
2023-05-09T19:58:00.073Z, 100
2023-05-09T20:00:00.124Z, 100
2023-05-09T20:02:00.262Z, 100
2023-05-09T20:04:00.143Z, 100
2023-05-09T20:06:00.087Z, 100
2023-05-09T20:08:00.077Z, 100
2023-05-09T20:10:00.062Z, 100
2023-05-09T20:12:00.091Z, 100
2023-05-09T20:14:00.061Z, 100
2023-05-09T20:16:00.137Z, 100
2023-05-09T20:18:00.169Z, 100
2023-05-09T20:20:00.057Z, 100
2023-05-09T20:22:00.131Z, 100
2023-05-09T20:24:00.174Z, 100
2023-05-09T20:26:00.202Z, 100
2023-05-09T20:28:00.096Z, 100
2023-05-09T20:30:00.185Z, 100
2023-05-09T20:32:00.149Z, 100
2023-05-09T20:34:00.154Z, 100
2023-05-09T20:36:00.138Z, 100
2023-05-09T20:38:00.115Z, 100
2023-05-09T20:40:00.134Z, 100
2023-05-09T20:42:00.122Z, 100
2023-05-09T20:44:00.150Z, 100
2023-05-09T20:46:00.166Z, 100
2023-05-09T20:48:00.241Z, 100
2023-05-09T20:50:00.196Z, 100
2023-05-09T20:52:00.087Z, 100
2023-05-09T20:54:00.067Z, 100
2023-05-09T20:56:00.074Z, 100
2023-05-09T20:58:00.042Z, 100
2023-05-09T21:00:00.201Z, 100
2023-05-09T21:02:00.097Z, 100
2023-05-09T21:04:00.058Z, 100
2023-05-09T21:06:00.089Z, 100
2023-05-09T21:08:00.049Z, 100
2023-05-09T21:10:00.099Z, 100
2023-05-09T21:12:00.132Z, 100
2023-05-09T21:14:00.052Z, 100
2023-05-09T21:16:00.053Z, 100
2023-05-09T21:20:00.089Z, 100
2023-05-09T21:22:00.133Z, 100
2023-05-09T21:24:00.898Z, 100
2023-05-09T21:26:00.181Z, 100
2023-05-09T21:28:00.120Z, 100
2023-05-09T21:30:00.163Z, 100
2023-05-09T21:32:00.119Z, 100
2023-05-09T21:34:00.131Z, 100
2023-05-09T21:36:00.159Z, 100
2023-05-09T21:38:00.174Z, 100
2023-05-09T21:40:00.136Z, 100
2023-05-09T21:42:00.110Z, 100
2023-05-09T21:44:00.126Z, 100
2023-05-09T21:46:00.139Z, 100
2023-05-09T21:48:00.334Z, 100
2023-05-09T21:50:00.192Z, 100
2023-05-09T21:52:00.104Z, 100
2023-05-09T21:54:00.094Z, 100
2023-05-09T21:56:00.038Z, 100
2023-05-09T21:58:00.064Z, 100
2023-05-09T22:00:00.057Z, 100
2023-05-09T22:02:00.087Z, 100
2023-05-09T22:04:00.129Z, 100
2023-05-09T22:06:00.092Z, 100
2023-05-09T22:08:00.065Z, 100
2023-05-09T22:10:00.057Z, 100
2023-05-09T22:12:00.049Z, 100
2023-05-09T22:14:00.062Z, 100
2023-05-09T22:16:00.108Z, 100
2023-05-09T22:18:00.156Z, 100
2023-05-09T22:20:00.036Z, 100
2023-05-09T22:22:00.123Z, 100
2023-05-09T22:24:00.120Z, 100
2023-05-09T22:26:00.123Z, 100
2023-05-09T22:28:00.100Z, 100
2023-05-09T22:30:00.151Z, 100
2023-05-09T22:32:00.179Z, 100
2023-05-09T22:34:00.120Z, 100
2023-05-09T22:36:00.154Z, 100
2023-05-09T22:38:00.126Z, 100
2023-05-09T22:40:00.142Z, 100
2023-05-09T22:42:00.125Z, 100
2023-05-09T22:44:00.107Z, 100
2023-05-09T22:46:00.161Z, 100
2023-05-09T22:48:00.195Z, 100
2023-05-09T22:50:00.132Z, 100
2023-05-09T22:52:00.063Z, 100
2023-05-09T22:54:00.124Z, 100
2023-05-09T22:56:09.893Z, 100
2023-05-09T22:58:00.065Z, 100
2023-05-09T23:00:00.086Z, 100
2023-05-09T23:04:00.106Z, 100
2023-05-09T23:06:00.069Z, 100
2023-05-09T23:08:00.057Z, 100
2023-05-09T23:10:00.062Z, 100
2023-05-09T23:12:00.085Z, 100
2023-05-09T23:14:00.060Z, 100
2023-05-09T23:16:00.142Z, 100
2023-05-09T23:18:00.179Z, 100
2023-05-09T23:20:00.059Z, 100
2023-05-09T23:22:00.106Z, 100
2023-05-09T23:24:00.107Z, 100
2023-05-09T23:26:00.096Z, 100
2023-05-09T23:28:00.142Z, 100
2023-05-09T23:30:00.138Z, 100
2023-05-09T23:32:00.116Z, 100
2023-05-09T23:34:00.167Z, 100
2023-05-09T23:36:00.145Z, 100
2023-05-09T23:38:00.133Z, 100
2023-05-09T23:40:00.160Z, 100
2023-05-09T23:42:00.168Z, 100
2023-05-09T23:44:00.134Z, 100
2023-05-09T23:46:00.110Z, 100
2023-05-09T23:48:00.235Z, 100
2023-05-09T23:50:00.159Z, 100
2023-05-09T23:52:00.074Z, 100
2023-05-09T23:54:00.131Z, 100
2023-05-09T23:56:00.051Z, 100
2023-05-09T23:58:00.060Z, 100
